Аэропорт: Хомутово. Южно-Сахалинск

ICAO: UHSS

METAR:
2020-06-02 09:30:00
UHSS 020930Z 22002MPS 8000 OVC006 12/11 Q1002 R01/190065 NOSIG RMK MT OBSC QFE750/1000
METAR:
2020-06-02 08:30:00
TAF AMD UHSS 020830Z 0208/0315 18003MPS 0700 FG BKN002 BKN030CB BECMG 0221/0224 9999 NSW BKN030CB